createdAt,value
2023-10-26T00:02:17.526Z,7.05
2023-10-26T00:04:44.452Z,6.03
2023-10-26T00:07:11.313Z,5.47
2023-10-26T00:09:37.973Z,5.65
2023-10-26T00:12:04.975Z,6.30
2023-10-26T00:14:31.720Z,6.20
2023-10-26T00:16:58.403Z,5.68
2023-10-26T00:19:25.125Z,5.55
2023-10-26T00:21:54.089Z,5.43
2023-10-26T00:24:20.662Z,5.50
2023-10-26T00:26:49.213Z,6.22
2023-10-26T00:29:16.716Z,5.93
2023-10-26T00:31:44.256Z,6.30
2023-10-26T00:34:11.921Z,6.57
2023-10-26T00:36:39.577Z,5.95
2023-10-26T00:39:07.153Z,6.43
2023-10-26T00:41:34.766Z,6.47
2023-10-26T00:44:01.979Z,6.32
2023-10-26T00:46:29.270Z,6.60
2023-10-26T00:48:57.385Z,7.10
2023-10-26T00:51:25.929Z,6.57
2023-10-26T00:53:54.585Z,6.57
2023-10-26T00:56:23.778Z,7.22
2023-10-26T00:58:51.214Z,5.93
2023-10-26T01:01:19.681Z,7.40
2023-10-26T01:03:48.403Z,6.60
2023-10-26T01:06:15.159Z,6.97
2023-10-26T01:08:41.959Z,7.20
2023-10-26T01:11:09.012Z,7.47
2023-10-26T01:13:35.796Z,7.47
2023-10-26T01:16:05.644Z,7.15
2023-10-26T01:18:32.680Z,7.07
2023-10-26T01:20:59.758Z,8.63
2023-10-26T01:23:26.436Z,7.15
2023-10-26T01:25:55.960Z,8.30
2023-10-26T01:28:24.490Z,7.78
2023-10-26T01:30:51.395Z,7.05
2023-10-26T01:33:18.152Z,7.32
2023-10-26T01:35:47.109Z,8.45
2023-10-26T01:38:14.890Z,7.72
2023-10-26T01:40:41.762Z,7.20
2023-10-26T01:43:08.375Z,7.15
2023-10-26T01:45:35.457Z,8.27
2023-10-26T01:48:04.549Z,7.05
2023-10-26T01:50:32.500Z,7.63
2023-10-26T01:52:59.156Z,8.40
2023-10-26T01:55:25.780Z,7.35
2023-10-26T01:57:52.467Z,7.20
2023-10-26T02:00:19.557Z,6.78
2023-10-26T02:02:48.414Z,7.40
2023-10-26T02:05:15.315Z,7.60
2023-10-26T02:07:41.996Z,6.85
2023-10-26T02:10:09.409Z,8.40
2023-10-26T02:12:35.983Z,7.50
2023-10-26T02:15:02.615Z,6.70
2023-10-26T02:17:30.290Z,6.80
2023-10-26T02:19:57.152Z,6.82
2023-10-26T02:22:23.899Z,7.00
2023-10-26T02:24:50.490Z,7.47
2023-10-26T02:27:17.236Z,6.45
2023-10-26T02:29:43.916Z,6.63
2023-10-26T02:32:10.563Z,6.95
2023-10-26T02:34:37.369Z,5.65
2023-10-26T02:37:04.110Z,6.95
2023-10-26T02:39:30.686Z,6.40
2023-10-26T02:41:57.433Z,6.15
2023-10-26T02:44:24.075Z,6.82
2023-10-26T02:46:50.867Z,6.85
2023-10-26T02:49:17.539Z,5.93
2023-10-26T02:51:44.180Z,6.05
2023-10-26T02:54:10.823Z,6.53
2023-10-26T02:56:37.438Z,6.47
2023-10-26T02:59:05.026Z,6.65
2023-10-26T03:01:34.928Z,7.00
2023-10-26T03:04:04.037Z,6.30
2023-10-26T03:06:37.178Z,5.93
2023-10-26T03:09:04.496Z,6.55
2023-10-26T03:11:31.200Z,6.30
2023-10-26T03:13:57.826Z,6.55
2023-10-26T03:16:24.499Z,7.32
2023-10-26T03:18:51.092Z,6.55
2023-10-26T03:21:20.338Z,6.72
2023-10-26T03:23:53.810Z,6.97
2023-10-26T03:26:21.486Z,6.63
2023-10-26T03:28:51.884Z,7.05
2023-10-26T03:31:18.673Z,7.40
2023-10-26T03:33:45.928Z,7.78
2023-10-26T03:36:15.888Z,7.25
2023-10-26T03:38:43.140Z,8.32
2023-10-26T03:41:10.009Z,7.53
2023-10-26T03:43:37.136Z,6.95
2023-10-26T03:46:06.044Z,7.95
2023-10-26T03:48:33.657Z,7.53
2023-10-26T03:51:00.480Z,7.93
2023-10-26T03:53:27.869Z,7.80
2023-10-26T03:55:56.627Z,8.23
2023-10-26T03:58:23.261Z,7.22
2023-10-26T04:00:50.377Z,7.95
2023-10-26T04:03:17.066Z,6.82
2023-10-26T04:05:43.819Z,7.97
2023-10-26T04:08:10.988Z,6.85
2023-10-26T04:10:38.319Z,6.22
2023-10-26T04:13:05.450Z,8.05
2023-10-26T04:15:32.068Z,6.78
2023-10-26T04:17:59.631Z,6.95
2023-10-26T04:20:26.278Z,7.25
2023-10-26T04:22:53.524Z,6.78
2023-10-26T04:25:22.615Z,7.57
2023-10-26T04:27:49.208Z,6.57
2023-10-26T04:30:16.073Z,7.10
2023-10-26T04:32:43.703Z,6.95
2023-10-26T04:35:11.196Z,7.05
2023-10-26T04:37:38.802Z,6.72
2023-10-26T04:40:07.170Z,7.28
2023-10-26T04:42:33.856Z,7.90
2023-10-26T04:45:00.712Z,7.32
2023-10-26T04:47:27.425Z,8.18
2023-10-26T04:49:54.078Z,7.72
2023-10-26T04:52:21.697Z,8.35
2023-10-26T04:54:48.799Z,7.70
2023-10-26T04:57:16.088Z,7.82
2023-10-26T04:59:42.734Z,8.40
2023-10-26T05:02:09.566Z,7.18
2023-10-26T05:04:36.179Z,7.75
2023-10-26T05:07:04.013Z,8.35
2023-10-26T05:09:31.831Z,6.55
2023-10-26T05:11:58.513Z,7.65
2023-10-26T05:14:25.137Z,7.70
2023-10-26T05:16:52.341Z,6.60
2023-10-26T05:19:19.038Z,7.75
2023-10-26T05:21:45.933Z,7.90
2023-10-26T05:24:12.515Z,7.25
2023-10-26T05:26:39.156Z,7.15
2023-10-26T05:29:05.807Z,6.13
2023-10-26T05:31:32.434Z,6.82
2023-10-26T05:33:59.145Z,7.25
2023-10-26T05:36:25.793Z,7.70
2023-10-26T05:38:52.443Z,8.18
2023-10-26T05:41:19.197Z,8.30
2023-10-26T05:43:45.815Z,8.23
2023-10-26T05:46:13.045Z,7.35
2023-10-26T05:48:39.850Z,7.85
2023-10-26T05:51:06.861Z,8.00
2023-10-26T05:53:33.481Z,8.38
2023-10-26T05:56:00.267Z,7.53
2023-10-26T05:58:27.641Z,7.53
2023-10-26T06:00:54.433Z,7.65
2023-10-26T06:03:21.159Z,7.95
2023-10-26T06:05:48.876Z,8.20
2023-10-26T06:08:15.606Z,7.82
2023-10-26T06:10:42.798Z,8.35
2023-10-26T06:13:09.451Z,8.15
2023-10-26T06:15:36.790Z,7.55
2023-10-26T06:18:03.982Z,8.15
2023-10-26T06:20:30.725Z,8.07
2023-10-26T06:22:57.646Z,8.05
2023-10-26T06:25:26.551Z,8.00
2023-10-26T06:27:53.314Z,7.88
2023-10-26T06:30:20.044Z,7.88
2023-10-26T06:32:46.871Z,7.90
2023-10-26T06:35:13.707Z,7.75
2023-10-26T06:37:40.362Z,8.40
2023-10-26T06:40:08.290Z,7.28
2023-10-26T06:42:35.025Z,8.18
2023-10-26T06:45:01.836Z,8.15
2023-10-26T06:47:28.467Z,7.22
2023-10-26T06:49:55.114Z,7.97
2023-10-26T06:52:22.155Z,7.88
2023-10-26T06:54:49.358Z,7.75
2023-10-26T06:57:16.599Z,7.32
2023-10-26T06:59:43.664Z,6.50
2023-10-26T07:02:12.370Z,7.00
2023-10-26T07:04:39.426Z,7.50
2023-10-26T07:07:06.261Z,7.32
2023-10-26T07:09:32.907Z,7.40
2023-10-26T07:11:59.699Z,8.32
2023-10-26T07:14:27.180Z,7.72
2023-10-26T07:16:53.816Z,8.00
2023-10-26T07:19:20.486Z,7.30
2023-10-26T07:21:47.271Z,7.18
2023-10-26T07:24:13.893Z,7.25
2023-10-26T07:26:40.459Z,7.22
2023-10-26T07:29:07.704Z,7.63
2023-10-26T07:31:34.392Z,7.10
2023-10-26T07:34:01.008Z,6.35
2023-10-26T07:36:31.662Z,6.15
2023-10-26T07:39:47.151Z,6.03
2023-10-26T07:42:07.222Z,6.63
2023-10-26T07:44:34.820Z,5.32
2023-10-26T07:47:01.484Z,5.00
2023-10-26T07:49:28.286Z,4.93
2023-10-26T07:51:54.989Z,4.43
2023-10-26T07:54:21.642Z,5.05
2023-10-26T07:56:48.451Z,3.85
2023-10-26T07:59:15.211Z,4.03
2023-10-26T08:01:41.944Z,3.92
2023-10-26T08:04:09.130Z,2.72
2023-10-26T08:06:36.853Z,2.58
2023-10-26T08:09:03.739Z,2.78
2023-10-26T08:11:30.447Z,2.47
2023-10-26T08:13:57.148Z,2.20
2023-10-26T08:16:40.517Z,2.88
2023-10-26T08:19:10.812Z,2.25
2023-10-26T08:21:37.612Z,2.00
2023-10-26T08:24:04.489Z,1.80
2023-10-26T08:26:31.044Z,1.48
2023-10-26T08:29:11.981Z,1.98
2023-10-26T08:31:44.615Z,1.42
2023-10-26T08:34:12.391Z,2.03
2023-10-26T08:36:42.182Z,1.70
2023-10-26T08:39:11.434Z,1.67
2023-10-26T08:41:38.135Z,1.85
2023-10-26T08:44:05.226Z,2.03
2023-10-26T08:46:32.747Z,1.70
2023-10-26T08:49:02.969Z,1.63
2023-10-26T08:53:58.485Z,1.77
2023-10-26T08:56:25.331Z,1.60
2023-10-26T08:58:57.904Z,1.65
2023-10-26T09:01:25.509Z,1.85
2023-10-26T09:03:52.619Z,1.75
2023-10-26T09:06:19.345Z,2.33
2023-10-26T09:09:01.753Z,2.35
2023-10-26T09:11:28.901Z,1.83
2023-10-26T09:14:12.348Z,2.10
2023-10-26T09:16:39.313Z,2.40
2023-10-26T09:19:06.209Z,2.13
2023-10-26T09:21:50.494Z,2.05
2023-10-26T09:24:20.612Z,2.85
2023-10-26T09:29:13.686Z,2.05
2023-10-26T09:31:56.275Z,2.03
2023-10-26T09:34:25.256Z,2.40
2023-10-26T09:37:01.241Z,1.38
2023-10-26T09:39:31.775Z,2.33
2023-10-26T09:41:59.398Z,2.72
2023-10-26T09:44:26.532Z,2.42
2023-10-26T09:46:53.741Z,1.83
2023-10-26T09:49:21.687Z,1.98
2023-10-26T09:51:48.357Z,2.42
2023-10-26T09:54:16.431Z,2.03
2023-10-26T09:56:49.109Z,2.42
2023-10-26T09:59:16.077Z,2.35
2023-10-26T10:01:42.916Z,2.83
2023-10-26T10:04:11.191Z,2.17
2023-10-26T10:06:55.828Z,2.10
2023-10-26T10:09:24.383Z,2.10
2023-10-26T10:23:00.717Z,2.97
2023-10-26T10:28:40.995Z,2.30
2023-10-26T10:31:07.850Z,2.50
2023-10-26T10:33:35.762Z,2.42
2023-10-26T10:38:40.734Z,3.08
2023-10-26T10:41:09.704Z,2.95
2023-10-26T10:43:41.866Z,2.33
2023-10-26T10:46:14.759Z,2.45
2023-10-26T10:48:59.439Z,2.10
2023-10-26T10:54:22.340Z,4.03
2023-10-26T10:56:53.551Z,4.18
2023-10-26T10:59:30.741Z,3.70
2023-10-26T11:02:14.589Z,3.80
2023-10-26T11:05:09.652Z,3.30
2023-10-26T11:07:43.129Z,3.20
2023-10-26T11:10:10.169Z,3.10
2023-10-26T11:12:36.827Z,2.63
2023-10-26T11:15:05.176Z,2.90
2023-10-26T11:17:32.821Z,2.88
2023-10-26T11:19:59.530Z,3.13
2023-10-26T11:22:26.125Z,3.13
2023-10-26T11:24:52.876Z,3.50
2023-10-26T11:27:22.238Z,3.78
2023-10-26T11:30:06.638Z,3.72
2023-10-26T11:32:33.902Z,1.48
2023-10-26T11:37:47.005Z,2.40
2023-10-26T11:40:15.578Z,2.42
2023-10-26T11:43:00.773Z,2.30
2023-10-26T11:45:29.089Z,2.40
2023-10-26T11:47:58.015Z,3.90
2023-10-26T11:53:06.292Z,4.07
2023-10-26T11:55:34.295Z,3.75
2023-10-26T11:58:02.454Z,4.07
2023-10-26T12:00:31.269Z,2.08
2023-10-26T12:02:59.643Z,4.25
2023-10-26T12:05:27.456Z,3.75
2023-10-26T12:07:54.915Z,4.15
2023-10-26T12:10:24.026Z,2.97
2023-10-26T12:12:51.565Z,4.28
2023-10-26T12:15:19.454Z,3.92
2023-10-26T12:17:46.903Z,2.47
2023-10-26T12:20:15.063Z,4.65
2023-10-26T12:22:42.379Z,3.85
2023-10-26T12:25:09.620Z,3.75
2023-10-26T12:28:21.024Z,3.72
2023-10-26T12:30:23.108Z,3.75
2023-10-26T12:32:49.844Z,3.78
2023-10-26T12:35:16.944Z,3.35
2023-10-26T12:37:43.628Z,3.58
2023-10-26T12:40:10.550Z,3.58
2023-10-26T12:42:37.309Z,3.03
2023-10-26T12:45:04.616Z,3.65
2023-10-26T12:47:31.335Z,3.22
2023-10-26T12:49:57.954Z,4.28
2023-10-26T12:52:24.655Z,3.47
2023-10-26T12:54:51.288Z,2.97
2023-10-26T12:57:17.873Z,1.77
2023-10-26T12:59:44.519Z,2.28
2023-10-26T13:02:11.129Z,2.50
2023-10-26T13:04:37.970Z,2.78
2023-10-26T13:07:04.875Z,2.60
2023-10-26T13:09:31.671Z,2.92
2023-10-26T13:11:58.370Z,3.15
2023-10-26T13:14:24.964Z,1.40
2023-10-26T13:16:58.325Z,3.20
2023-10-26T13:19:26.213Z,3.55
2023-10-26T13:21:52.990Z,3.05
2023-10-26T13:24:19.733Z,2.88
2023-10-26T13:26:46.470Z,2.78
2023-10-26T13:29:13.494Z,2.25
2023-10-26T13:31:40.257Z,3.78
2023-10-26T13:34:08.736Z,2.55
2023-10-26T13:36:35.631Z,2.25
2023-10-26T13:39:05.453Z,1.50
2023-10-26T13:44:00.204Z,2.63
2023-10-26T13:46:29.396Z,2.47
2023-10-26T13:48:56.245Z,2.20
2023-10-26T13:51:23.126Z,2.17
2023-10-26T13:53:49.756Z,2.63
2023-10-26T13:56:16.587Z,2.10
2023-10-26T13:58:43.132Z,2.10
2023-10-26T14:01:13.804Z,2.92
2023-10-26T14:03:40.926Z,2.53
2023-10-26T14:06:09.143Z,2.95
2023-10-26T14:08:36.208Z,2.67
2023-10-26T14:11:03.726Z,2.97
2023-10-26T14:13:30.418Z,2.92
2023-10-26T14:15:57.042Z,2.42
2023-10-26T14:18:23.870Z,2.67
2023-10-26T14:20:50.787Z,1.00
2023-10-26T14:23:17.354Z,3.28
2023-10-26T14:25:43.963Z,2.92
2023-10-26T14:28:10.494Z,2.63
2023-10-26T14:30:37.279Z,3.15
2023-10-26T14:33:03.972Z,2.53
2023-10-26T14:35:30.582Z,2.85
2023-10-26T14:37:59.973Z,2.83
2023-10-26T14:40:27.049Z,2.83
2023-10-26T14:42:55.135Z,2.50
2023-10-26T14:45:24.874Z,2.65
2023-10-26T14:47:51.569Z,1.00
2023-10-26T14:50:18.370Z,2.38
2023-10-26T14:52:44.998Z,2.08
2023-10-26T14:55:11.655Z,2.38
2023-10-26T14:57:38.353Z,0.93
2023-10-26T15:00:05.462Z,1.02
2023-10-26T15:02:32.091Z,3.45
2023-10-26T15:04:58.748Z,11.43
2023-10-26T15:07:25.658Z,5.68
2023-10-26T15:10:24.374Z,7.95
2023-10-26T15:12:39.448Z,1.52
2023-10-26T15:15:06.736Z,3.97
2023-10-26T15:17:33.603Z,3.63
2023-10-26T15:20:00.343Z,2.53
2023-10-26T15:22:27.266Z,9.93
2023-10-26T15:24:53.980Z,3.60
2023-10-26T15:27:20.866Z,4.32
2023-10-26T15:29:47.639Z,7.05
2023-10-26T15:32:19.148Z,5.15
2023-10-26T15:34:47.512Z,7.65
2023-10-26T15:37:15.086Z,4.90
2023-10-26T15:39:42.996Z,5.50
2023-10-26T15:42:10.213Z,5.05
2023-10-26T15:44:37.581Z,4.13
2023-10-26T15:47:05.367Z,4.07
2023-10-26T15:49:36.233Z,5.57
2023-10-26T15:52:04.194Z,3.53
2023-10-26T15:54:31.025Z,3.88
2023-10-26T15:56:59.215Z,3.03
2023-10-26T15:59:26.084Z,3.10
2023-10-26T16:01:52.893Z,2.70
2023-10-26T16:04:19.694Z,3.22
2023-10-26T16:06:47.988Z,2.42
2023-10-26T16:09:15.061Z,2.78
2023-10-26T16:11:41.946Z,3.22
2023-10-26T16:14:08.803Z,2.88
2023-10-26T16:16:35.593Z,2.55
2023-10-26T16:19:02.383Z,1.90
2023-10-26T16:21:29.080Z,2.67
2023-10-26T16:23:55.660Z,2.47
2023-10-26T16:26:22.812Z,1.00
2023-10-26T16:28:50.717Z,1.20
2023-10-26T16:31:17.928Z,2.50
2023-10-26T16:33:46.038Z,1.48
2023-10-26T16:36:12.942Z,2.28
2023-10-26T16:38:39.728Z,2.63
2023-10-26T16:41:06.556Z,2.30
2023-10-26T16:43:33.254Z,2.33
2023-10-26T16:46:00.712Z,2.45
2023-10-26T16:48:27.988Z,1.23
2023-10-26T16:50:56.421Z,2.67
2023-10-26T16:53:31.314Z,2.60
2023-10-26T16:56:01.614Z,2.30
2023-10-26T16:58:28.999Z,1.00
2023-10-26T17:00:58.971Z,2.28
2023-10-26T17:03:26.732Z,2.65
2023-10-26T17:05:53.395Z,1.40
2023-10-26T17:08:20.942Z,1.42
2023-10-26T17:10:49.640Z,2.63
2023-10-26T17:13:17.141Z,3.38
2023-10-26T17:15:44.365Z,3.03
2023-10-26T17:18:11.190Z,2.25
2023-10-26T17:20:38.792Z,1.23
2023-10-26T17:23:05.562Z,3.47
2023-10-26T17:25:36.028Z,3.10
2023-10-26T17:28:03.213Z,2.47
2023-10-26T17:30:30.574Z,3.03
2023-10-26T17:32:57.544Z,2.53
2023-10-26T17:35:24.405Z,2.38
2023-10-26T17:37:52.690Z,3.35
2023-10-26T17:40:19.549Z,3.05
2023-10-26T17:42:46.240Z,2.50
2023-10-26T17:45:12.868Z,3.00
2023-10-26T17:47:39.598Z,1.92
2023-10-26T17:50:06.672Z,2.58
2023-10-26T17:52:33.290Z,2.20
2023-10-26T17:55:03.656Z,2.30
2023-10-26T17:57:31.696Z,3.20
2023-10-26T17:59:58.484Z,3.33
2023-10-26T18:02:25.177Z,3.03
2023-10-26T18:04:52.053Z,3.13
2023-10-26T18:07:18.777Z,3.05
2023-10-26T18:09:45.694Z,3.30
2023-10-26T18:12:15.797Z,3.75
2023-10-26T18:14:42.670Z,2.85
2023-10-26T18:17:09.402Z,3.65
2023-10-26T18:19:36.127Z,1.58
2023-10-26T18:22:02.991Z,2.65
2023-10-26T18:24:32.834Z,2.55
2023-10-26T18:26:59.877Z,2.75
2023-10-26T18:29:28.019Z,3.13
2023-10-26T18:31:57.107Z,1.02
2023-10-26T18:34:23.983Z,1.80
2023-10-26T18:36:51.110Z,4.10
2023-10-26T18:39:17.742Z,2.40
2023-10-26T18:41:45.839Z,3.28
2023-10-26T18:44:12.663Z,3.42
2023-10-26T18:46:41.613Z,2.63
2023-10-26T18:49:10.164Z,2.67
2023-10-26T18:51:40.581Z,3.65
2023-10-26T18:54:08.223Z,3.40
2023-10-26T18:56:34.971Z,3.63
2023-10-26T18:59:02.503Z,2.92
2023-10-26T19:01:30.099Z,3.35
2023-10-26T19:04:02.917Z,1.50
2023-10-26T19:06:31.820Z,2.42
2023-10-26T19:09:00.338Z,3.88
2023-10-26T19:11:27.215Z,3.50
2023-10-26T19:13:54.415Z,1.52
2023-10-26T19:16:21.680Z,1.98
2023-10-26T19:18:48.480Z,3.40
2023-10-26T19:21:15.310Z,4.28
2023-10-26T19:23:42.808Z,3.22
2023-10-26T19:26:11.089Z,3.72
2023-10-26T19:28:37.905Z,4.63
2023-10-26T19:31:05.691Z,4.50
2023-10-26T19:33:32.651Z,2.70
2023-10-26T19:35:59.379Z,3.15
2023-10-26T19:38:26.165Z,3.38
2023-10-26T19:40:53.269Z,3.47
2023-10-26T19:43:20.333Z,2.10
2023-10-26T19:45:46.976Z,3.22
2023-10-26T19:48:15.188Z,1.80
2023-10-26T19:50:42.085Z,3.67
2023-10-26T19:53:08.712Z,3.83
2023-10-26T19:55:35.336Z,4.28
2023-10-26T19:58:02.118Z,4.20
2023-10-26T20:00:30.055Z,2.60
2023-10-26T20:02:56.819Z,4.20
2023-10-26T20:05:23.526Z,4.00
2023-10-26T20:07:50.134Z,4.05
2023-10-26T20:10:16.871Z,4.07
2023-10-26T20:12:43.774Z,4.65
2023-10-26T20:15:12.259Z,4.05
2023-10-26T20:17:38.924Z,2.92
2023-10-26T20:20:07.885Z,2.75
2023-10-26T20:22:35.145Z,4.28
2023-10-26T20:25:02.340Z,4.65
2023-10-26T20:27:29.037Z,4.22
2023-10-26T20:29:55.972Z,4.10
2023-10-26T20:32:22.829Z,5.30
2023-10-26T20:34:49.586Z,4.50
2023-10-26T20:37:16.386Z,4.32
2023-10-26T20:39:44.690Z,4.82
2023-10-26T20:42:11.648Z,4.75
2023-10-26T20:44:38.597Z,5.97
2023-10-26T20:47:06.354Z,6.45
2023-10-26T20:49:33.113Z,5.93
2023-10-26T20:51:59.765Z,5.13
2023-10-26T20:54:26.398Z,4.65
2023-10-26T20:56:53.078Z,6.45
2023-10-26T20:59:19.858Z,4.75
2023-10-26T21:01:46.485Z,5.65
2023-10-26T21:04:13.296Z,5.35
2023-10-26T21:06:40.606Z,5.80
2023-10-26T21:09:07.219Z,5.18
2023-10-26T21:11:33.931Z,5.43
2023-10-26T21:14:00.666Z,5.05
2023-10-26T21:16:27.376Z,3.50
2023-10-26T21:18:54.071Z,5.32
2023-10-26T21:21:20.748Z,3.72
2023-10-26T21:23:47.461Z,4.68
2023-10-26T21:26:14.078Z,4.53
2023-10-26T21:28:42.783Z,4.85
2023-10-26T21:31:09.928Z,2.97
2023-10-26T21:33:36.903Z,4.40
2023-10-26T21:36:06.214Z,2.78
2023-10-26T21:38:32.918Z,3.53
2023-10-26T21:41:05.071Z,5.00
2023-10-26T21:43:32.967Z,5.00
2023-10-26T21:46:04.175Z,2.78
2023-10-26T21:48:30.972Z,5.45
2023-10-26T21:50:57.798Z,4.55
2023-10-26T21:53:24.484Z,3.47
2023-10-26T21:55:51.509Z,4.55
2023-10-26T21:58:18.950Z,11.93
2023-10-26T22:00:46.117Z,9.32
2023-10-26T22:03:13.001Z,5.43
2023-10-26T22:05:39.711Z,4.68
2023-10-26T22:08:06.899Z,3.85
2023-10-26T22:10:33.597Z,4.40
2023-10-26T22:13:00.339Z,4.75
2023-10-26T22:15:27.145Z,2.95
2023-10-26T22:17:53.886Z,4.47
2023-10-26T22:20:20.892Z,3.80
2023-10-26T22:22:47.585Z,1.85
2023-10-26T22:25:14.381Z,2.10
2023-10-26T22:27:41.490Z,3.80
2023-10-26T22:30:08.705Z,3.67
2023-10-26T22:32:35.397Z,4.35
2023-10-26T22:35:02.268Z,3.47
2023-10-26T22:37:29.074Z,3.83
2023-10-26T22:39:55.695Z,2.17
2023-10-26T22:42:22.373Z,2.08
2023-10-26T22:44:50.609Z,3.90
2023-10-26T22:47:17.183Z,2.45
2023-10-26T22:49:44.533Z,3.55
2023-10-26T22:52:11.534Z,4.18
2023-10-26T22:54:38.180Z,3.42
2023-10-26T22:57:05.008Z,4.10
2023-10-26T22:59:31.642Z,3.88
2023-10-26T23:01:58.282Z,3.67
2023-10-26T23:04:26.230Z,4.28
2023-10-26T23:06:53.051Z,4.78
2023-10-26T23:09:19.887Z,4.93
2023-10-26T23:11:46.557Z,2.53
2023-10-26T23:14:13.271Z,3.92
2023-10-26T23:16:40.340Z,2.80
2023-10-26T23:19:07.299Z,3.30
2023-10-26T23:21:34.009Z,4.53
2023-10-26T23:24:03.352Z,4.47
2023-10-26T23:26:33.182Z,4.75
2023-10-26T23:29:02.737Z,2.67
2023-10-26T23:31:29.480Z,3.95
2023-10-26T23:33:56.247Z,2.67
2023-10-26T23:36:23.003Z,2.25
2023-10-26T23:38:49.687Z,3.72
2023-10-26T23:41:16.845Z,2.65
2023-10-26T23:43:43.606Z,4.00
2023-10-26T23:46:10.342Z,4.97
2023-10-26T23:48:37.891Z,3.88
2023-10-26T23:51:04.792Z,3.35
2023-10-26T23:53:32.197Z,1.77
2023-10-26T23:55:59.294Z,3.25
2023-10-26T23:58:25.921Z,3.40
